createdAt,value
2018-11-07T00:00:02.404Z,10.20
2018-11-07T00:02:31.111Z,10.40
2018-11-07T00:05:00.020Z,10.50
2018-11-07T00:07:28.481Z,10.60
2018-11-07T00:09:57.098Z,10.80
2018-11-07T00:12:25.662Z,10.90
2018-11-07T00:14:54.301Z,11.00
2018-11-07T00:17:22.797Z,11.10
2018-11-07T00:19:51.302Z,11.20
2018-11-07T00:22:19.832Z,11.30
2018-11-07T00:24:48.524Z,11.40
2018-11-07T00:27:17.103Z,11.40
2018-11-07T00:29:45.872Z,11.50
2018-11-07T00:32:14.614Z,11.50
2018-11-07T00:34:43.135Z,11.60
2018-11-07T00:37:11.625Z,11.60
2018-11-07T00:39:40.183Z,11.60
2018-11-07T00:42:08.808Z,11.60
2018-11-07T00:44:37.290Z,11.70
2018-11-07T00:47:06.119Z,11.70
2018-11-07T00:49:34.838Z,11.70
2018-11-07T00:52:03.315Z,11.70
2018-11-07T00:54:32.076Z,11.70
2018-11-07T00:57:00.647Z,11.70
2018-11-07T00:59:29.148Z,11.70
2018-11-07T01:01:57.708Z,11.60
2018-11-07T01:04:26.172Z,11.60
2018-11-07T01:06:55.179Z,11.60
2018-11-07T01:09:23.681Z,11.60
2018-11-07T01:11:52.282Z,11.60
2018-11-07T01:14:20.770Z,11.70
2018-11-07T01:16:49.431Z,11.60
2018-11-07T01:19:17.930Z,11.60
2018-11-07T01:21:46.424Z,11.60
2018-11-07T01:24:14.951Z,11.60
2018-11-07T01:26:43.636Z,11.60
2018-11-07T01:29:12.288Z,11.60
2018-11-07T01:31:40.991Z,11.60
2018-11-07T01:34:09.590Z,11.50
2018-11-07T01:36:38.173Z,11.50
2018-11-07T01:39:08.719Z,11.30
2018-11-07T01:41:37.590Z,11.20
2018-11-07T01:44:06.829Z,11.10
2018-11-07T01:46:35.540Z,11.10
2018-11-07T01:49:04.296Z,10.90
2018-11-07T01:51:32.864Z,10.90
2018-11-07T01:54:01.491Z,10.70
2018-11-07T01:56:30.315Z,10.70
2018-11-07T01:58:58.843Z,10.70
2018-11-07T02:01:27.382Z,10.60
2018-11-07T02:03:56.080Z,10.60
2018-11-07T02:06:24.647Z,10.60
2018-11-07T02:08:53.181Z,10.70
2018-11-07T02:11:21.819Z,10.70
2018-11-07T02:13:50.335Z,10.80
2018-11-07T02:16:18.811Z,10.80
2018-11-07T02:18:47.560Z,10.80
2018-11-07T02:21:16.057Z,10.70
2018-11-07T02:23:44.682Z,10.70
2018-11-07T02:26:13.197Z,10.70
2018-11-07T02:28:41.858Z,10.70
2018-11-07T02:31:10.331Z,10.60
2018-11-07T02:33:38.903Z,10.50
2018-11-07T02:36:07.434Z,10.50
2018-11-07T02:38:36.075Z,10.50
2018-11-07T02:41:04.775Z,10.50
2018-11-07T02:43:33.335Z,10.50
2018-11-07T02:46:01.929Z,10.40
2018-11-07T02:48:30.602Z,10.50
2018-11-07T02:50:59.095Z,10.50
2018-11-07T02:53:27.688Z,10.40
2018-11-07T02:55:56.315Z,10.40
2018-11-07T02:58:24.834Z,10.40
2018-11-07T03:00:53.569Z,10.40
2018-11-07T03:03:22.083Z,10.40
2018-11-07T03:05:50.565Z,10.30
2018-11-07T03:08:19.218Z,10.30
2018-11-07T03:10:47.886Z,10.20
2018-11-07T03:13:16.278Z,10.20
2018-11-07T03:15:44.903Z,10.20
2018-11-07T03:18:13.443Z,10.20
2018-11-07T03:20:41.970Z,10.10
2018-11-07T03:23:10.562Z,10.10
2018-11-07T03:25:39.134Z,10.10
2018-11-07T03:28:07.829Z,10.00
2018-11-07T03:30:36.319Z,10.00
2018-11-07T03:33:05.188Z,9.90
2018-11-07T03:35:33.726Z,9.90
2018-11-07T03:38:02.223Z,9.90
2018-11-07T03:40:30.897Z,9.80
2018-11-07T03:42:59.423Z,9.90
2018-11-07T03:45:33.194Z,9.90
2018-11-07T03:48:01.760Z,9.80
2018-11-07T03:50:30.414Z,9.80
2018-11-07T03:52:58.907Z,9.70
2018-11-07T03:55:27.575Z,9.70
2018-11-07T03:57:56.018Z,9.70
2018-11-07T04:00:24.668Z,9.60
2018-11-07T04:02:53.667Z,9.50
2018-11-07T04:05:22.187Z,9.50
2018-11-07T04:07:50.830Z,9.50
2018-11-07T04:10:19.451Z,9.50
2018-11-07T04:12:47.967Z,9.50
2018-11-07T04:15:16.558Z,9.50
2018-11-07T04:17:45.060Z,9.30
2018-11-07T04:20:13.608Z,9.30
2018-11-07T04:22:42.068Z,9.30
2018-11-07T04:25:10.851Z,9.40
2018-11-07T04:27:39.459Z,9.30
2018-11-07T04:30:10.962Z,9.30
2018-11-07T04:32:39.631Z,9.30
2018-11-07T04:35:09.411Z,9.30
2018-11-07T04:37:38.072Z,9.30
2018-11-07T04:40:07.837Z,9.20
2018-11-07T04:42:36.317Z,9.20
2018-11-07T04:45:05.549Z,9.20
2018-11-07T04:47:34.356Z,9.20
2018-11-07T04:50:03.189Z,9.20
2018-11-07T04:52:31.636Z,9.20
2018-11-07T04:55:00.151Z,9.20
2018-11-07T04:57:29.026Z,9.10
2018-11-07T04:59:57.671Z,9.10
2018-11-07T05:02:26.151Z,9.00
2018-11-07T05:04:54.727Z,9.10
2018-11-07T05:07:23.239Z,9.10
2018-11-07T05:09:51.845Z,9.10
2018-11-07T05:12:20.471Z,9.10
2018-11-07T05:14:49.054Z,9.00
2018-11-07T05:17:17.622Z,9.10
2018-11-07T05:19:46.355Z,9.10
2018-11-07T05:22:14.864Z,9.20
2018-11-07T05:24:43.345Z,9.10
2018-11-07T05:27:11.964Z,9.20
2018-11-07T05:29:40.443Z,9.30
2018-11-07T05:32:09.159Z,9.20
2018-11-07T05:34:37.664Z,9.20
2018-11-07T05:37:06.452Z,9.30
2018-11-07T05:39:35.076Z,9.30
2018-11-07T05:42:03.783Z,9.30
2018-11-07T05:44:32.321Z,9.30
2018-11-07T05:47:00.896Z,9.50
2018-11-07T05:49:29.435Z,9.30
2018-11-07T05:51:58.011Z,9.30
2018-11-07T05:54:26.504Z,9.30
2018-11-07T05:56:55.004Z,9.20
2018-11-07T05:59:23.551Z,9.20
2018-11-07T06:01:52.212Z,9.20
2018-11-07T06:04:20.768Z,9.20
2018-11-07T06:06:49.597Z,9.10
2018-11-07T06:09:18.307Z,9.10
2018-11-07T06:11:46.777Z,9.10
2018-11-07T06:14:15.266Z,9.10
2018-11-07T06:16:43.908Z,9.10
2018-11-07T06:19:12.411Z,9.00
2018-11-07T06:21:41.115Z,9.10
2018-11-07T06:24:09.619Z,9.10
2018-11-07T06:26:38.277Z,9.10
2018-11-07T06:29:06.804Z,9.10
2018-11-07T06:31:35.287Z,9.10
2018-11-07T06:34:03.880Z,9.00
2018-11-07T06:36:32.530Z,9.00
2018-11-07T06:39:01.091Z,9.00
2018-11-07T06:41:29.547Z,9.00
2018-11-07T06:43:58.062Z,8.90
2018-11-07T06:46:26.625Z,8.90
2018-11-07T06:48:55.260Z,8.80
2018-11-07T06:51:23.840Z,8.90
2018-11-07T06:53:52.423Z,8.80
2018-11-07T06:56:20.907Z,8.70
2018-11-07T06:58:49.526Z,8.60
2018-11-07T07:01:18.081Z,8.60
2018-11-07T07:03:46.652Z,8.60
2018-11-07T07:06:15.234Z,8.60
2018-11-07T07:08:43.711Z,8.60
2018-11-07T07:11:12.259Z,8.70
2018-11-07T07:13:40.735Z,8.50
2018-11-07T07:16:09.212Z,8.60
2018-11-07T07:18:37.887Z,8.60
2018-11-07T07:21:06.695Z,8.60
2018-11-07T07:23:35.451Z,8.70
2018-11-07T07:26:04.502Z,8.70
2018-11-07T07:28:32.990Z,8.70
2018-11-07T07:31:01.555Z,8.80
2018-11-07T07:33:30.152Z,8.80
2018-11-07T07:35:58.779Z,8.80
2018-11-07T07:38:27.344Z,8.80
2018-11-07T07:40:55.907Z,8.90
2018-11-07T07:43:24.489Z,8.90
2018-11-07T07:45:53.004Z,8.90
2018-11-07T07:48:21.653Z,8.90
2018-11-07T07:50:50.132Z,9.00
2018-11-07T07:53:18.834Z,9.10
2018-11-07T07:55:47.234Z,9.20
2018-11-07T07:58:15.848Z,9.30
2018-11-07T08:00:44.426Z,9.50
2018-11-07T08:03:12.898Z,9.70
2018-11-07T08:05:41.562Z,10.00
2018-11-07T08:08:10.184Z,10.30
2018-11-07T08:10:38.721Z,10.60
2018-11-07T08:13:07.202Z,11.00
2018-11-07T08:15:35.857Z,11.20
2018-11-07T08:18:04.384Z,11.30
2018-11-07T08:20:32.923Z,11.50
2018-11-07T08:23:01.505Z,11.70
2018-11-07T08:25:30.142Z,11.70
2018-11-07T08:27:58.667Z,11.80
2018-11-07T08:30:27.208Z,11.80
2018-11-07T08:32:55.844Z,11.80
2018-11-07T08:35:24.372Z,11.80
2018-11-07T08:37:52.875Z,11.80
2018-11-07T08:40:22.942Z,11.80
2018-11-07T08:42:53.769Z,11.80
2018-11-07T08:45:22.277Z,11.90
2018-11-07T08:47:50.847Z,11.90
2018-11-07T08:50:20.699Z,11.90
2018-11-07T08:52:49.579Z,12.00
2018-11-07T08:55:20.294Z,12.00
2018-11-07T08:57:48.983Z,12.10
2018-11-07T09:00:18.892Z,12.10
2018-11-07T09:02:47.585Z,12.20
2018-11-07T09:05:16.963Z,12.20
2018-11-07T09:07:46.227Z,12.30
2018-11-07T09:10:16.040Z,12.40
2018-11-07T09:12:44.624Z,12.40
2018-11-07T09:15:19.519Z,12.50
2018-11-07T09:17:48.175Z,12.60
2018-11-07T09:20:18.100Z,12.70
2018-11-07T09:22:46.687Z,12.80
2018-11-07T09:25:16.100Z,12.90
2018-11-07T09:27:45.618Z,13.00
2018-11-07T09:30:16.653Z,13.00
2018-11-07T09:32:45.219Z,13.10
2018-11-07T09:35:14.099Z,13.10
2018-11-07T09:37:43.054Z,13.30
2018-11-07T09:40:13.614Z,13.40
2018-11-07T09:42:42.942Z,13.40
2018-11-07T09:45:13.003Z,13.50
2018-11-07T09:47:42.577Z,13.60
2018-11-07T09:50:12.174Z,13.60
2018-11-07T09:52:41.263Z,13.60
2018-11-07T09:55:12.486Z,13.60
2018-11-07T09:57:41.234Z,13.70
2018-11-07T10:00:11.858Z,13.70
2018-11-07T10:02:41.036Z,13.80
2018-11-07T10:05:10.162Z,13.90
2018-11-07T10:07:39.492Z,14.00
2018-11-07T10:10:10.335Z,14.00
2018-11-07T10:12:39.632Z,14.10
2018-11-07T10:15:08.859Z,14.20
2018-11-07T10:17:37.405Z,14.20
2018-11-07T10:20:13.395Z,14.40
2018-11-07T10:22:42.687Z,14.60
2018-11-07T10:25:11.881Z,14.80
2018-11-07T10:27:40.821Z,14.80
2018-11-07T10:30:11.513Z,14.80
2018-11-07T10:32:40.137Z,14.90
2018-11-07T10:35:09.382Z,14.90
2018-11-07T10:37:37.952Z,15.10
2018-11-07T10:40:09.484Z,15.40
2018-11-07T10:42:38.121Z,15.40
2018-11-07T10:45:07.315Z,15.40
2018-11-07T10:47:36.129Z,15.60
2018-11-07T10:50:05.369Z,15.60
2018-11-07T10:52:33.876Z,15.60
2018-11-07T10:55:02.531Z,15.80
2018-11-07T10:57:31.027Z,15.80
2018-11-07T10:59:59.602Z,15.80
2018-11-07T11:02:33.548Z,15.80
2018-11-07T11:05:02.242Z,15.80
2018-11-07T11:07:30.902Z,15.80
2018-11-07T11:09:59.416Z,15.90
2018-11-07T11:12:28.611Z,16.00
2018-11-07T11:14:57.195Z,16.00
2018-11-07T11:17:25.970Z,16.10
2018-11-07T11:19:54.343Z,16.20
2018-11-07T11:22:23.047Z,16.20
2018-11-07T11:24:51.515Z,16.20
2018-11-07T11:27:20.177Z,16.10
2018-11-07T11:29:48.591Z,16.10
2018-11-07T11:32:17.092Z,16.10
2018-11-07T11:34:45.749Z,16.20
2018-11-07T11:37:14.268Z,16.10
2018-11-07T11:39:42.920Z,16.10
2018-11-07T11:42:11.398Z,16.10
2018-11-07T11:44:40.097Z,16.10
2018-11-07T11:47:08.556Z,16.10
2018-11-07T11:49:37.147Z,16.20
2018-11-07T11:52:05.684Z,16.20
2018-11-07T11:54:34.304Z,16.10
2018-11-07T11:57:02.796Z,16.20
2018-11-07T11:59:31.389Z,16.20
2018-11-07T12:01:59.916Z,16.20
2018-11-07T12:04:28.464Z,16.20
2018-11-07T12:06:57.331Z,16.20
2018-11-07T12:09:25.808Z,16.30
2018-11-07T12:11:54.272Z,16.20
2018-11-07T12:14:22.800Z,16.20
2018-11-07T12:16:51.354Z,16.10
2018-11-07T12:19:19.935Z,16.10
2018-11-07T12:21:48.683Z,16.10
2018-11-07T12:24:17.394Z,16.10
2018-11-07T12:26:45.957Z,16.10
2018-11-07T12:29:14.478Z,16.10
2018-11-07T12:31:42.999Z,16.10
2018-11-07T12:34:11.588Z,16.00
2018-11-07T12:36:40.219Z,16.10
2018-11-07T12:39:09.661Z,16.00
2018-11-07T12:41:38.590Z,16.10
2018-11-07T12:44:07.210Z,16.00
2018-11-07T12:46:35.735Z,16.00
2018-11-07T12:49:04.399Z,15.90
2018-11-07T12:51:32.894Z,15.90
2018-11-07T12:54:01.344Z,15.90
2018-11-07T12:56:30.003Z,15.80
2018-11-07T12:58:58.486Z,15.90
2018-11-07T13:01:27.107Z,15.90
2018-11-07T13:03:55.596Z,16.00
2018-11-07T13:06:24.335Z,15.90
2018-11-07T13:08:52.883Z,16.00
2018-11-07T13:11:21.473Z,15.90
2018-11-07T13:13:49.987Z,15.90
2018-11-07T13:16:18.445Z,15.90
2018-11-07T13:18:47.107Z,15.90
2018-11-07T13:21:15.564Z,15.90
2018-11-07T13:23:44.415Z,15.90
2018-11-07T13:26:12.895Z,15.90
2018-11-07T13:28:41.514Z,15.90
2018-11-07T13:31:10.102Z,15.90
2018-11-07T13:33:38.609Z,15.90
2018-11-07T13:36:07.328Z,15.90
2018-11-07T13:38:36.112Z,15.90
2018-11-07T13:41:04.643Z,15.80
2018-11-07T13:43:33.135Z,15.80
2018-11-07T13:46:01.773Z,15.80
2018-11-07T13:48:30.296Z,15.80
2018-11-07T13:50:58.927Z,15.70
2018-11-07T13:53:27.513Z,15.70
2018-11-07T13:55:56.097Z,15.70
2018-11-07T13:58:24.563Z,15.60
2018-11-07T14:00:53.207Z,15.60
2018-11-07T14:03:21.707Z,15.70
2018-11-07T14:05:50.468Z,15.70
2018-11-07T14:08:18.811Z,15.70
2018-11-07T14:10:47.391Z,15.70
2018-11-07T14:13:16.061Z,15.70
2018-11-07T14:15:44.862Z,15.70
2018-11-07T14:18:13.475Z,15.70
2018-11-07T14:20:41.976Z,15.80
2018-11-07T14:23:10.520Z,15.70
2018-11-07T14:25:39.046Z,15.60
2018-11-07T14:28:08.213Z,15.60
2018-11-07T14:30:36.762Z,15.50
2018-11-07T14:33:05.549Z,15.50
2018-11-07T14:35:34.035Z,15.50
2018-11-07T14:38:02.602Z,15.40
2018-11-07T14:40:31.272Z,15.40
2018-11-07T14:42:59.879Z,15.40
2018-11-07T14:45:28.421Z,15.30
2018-11-07T14:47:57.047Z,15.30
2018-11-07T14:50:25.623Z,15.30
2018-11-07T14:52:54.339Z,15.30
2018-11-07T14:55:22.997Z,15.30
2018-11-07T14:57:51.521Z,15.20
2018-11-07T15:00:20.026Z,15.20
2018-11-07T15:02:48.676Z,15.20
2018-11-07T15:05:18.133Z,15.20
2018-11-07T15:07:46.715Z,15.10
2018-11-07T15:10:16.340Z,15.20
2018-11-07T15:12:44.924Z,15.20
2018-11-07T15:15:16.779Z,15.20
2018-11-07T15:17:45.466Z,15.20
2018-11-07T15:20:15.016Z,15.10
2018-11-07T15:22:43.731Z,15.10
2018-11-07T15:25:13.625Z,15.10
2018-11-07T15:27:43.482Z,15.10
2018-11-07T15:30:13.022Z,15.10
2018-11-07T15:32:42.163Z,15.00
2018-11-07T15:35:11.144Z,15.00
2018-11-07T15:37:40.259Z,14.90
2018-11-07T15:40:10.992Z,14.90
2018-11-07T15:42:39.831Z,14.90
2018-11-07T15:45:10.192Z,14.80
2018-11-07T15:47:39.094Z,14.80
2018-11-07T15:50:13.016Z,14.80
2018-11-07T15:52:41.660Z,14.70
2018-11-07T15:55:10.693Z,14.70
2018-11-07T15:57:39.314Z,14.70
2018-11-07T16:00:10.491Z,14.00
2018-11-07T16:02:39.462Z,14.60
2018-11-07T16:05:08.949Z,14.60
2018-11-07T16:07:38.598Z,14.60
2018-11-07T16:10:08.711Z,14.60
2018-11-07T16:12:37.548Z,14.60
2018-11-07T16:15:08.097Z,14.60
2018-11-07T16:17:36.678Z,14.50
2018-11-07T16:20:07.131Z,14.50
2018-11-07T16:22:35.856Z,14.40
2018-11-07T16:25:04.372Z,14.40
2018-11-07T16:27:32.872Z,14.40
2018-11-07T16:30:01.355Z,14.40
2018-11-07T16:32:29.892Z,14.30
2018-11-07T16:34:58.540Z,14.30
2018-11-07T16:37:27.059Z,14.30
2018-11-07T16:39:55.623Z,14.30
2018-11-07T16:42:24.209Z,14.20
2018-11-07T16:44:52.651Z,14.20
2018-11-07T16:47:21.224Z,14.20
2018-11-07T16:49:49.920Z,14.20
2018-11-07T16:52:18.513Z,14.10
2018-11-07T16:54:47.021Z,14.10
2018-11-07T16:57:15.621Z,14.00
2018-11-07T16:59:44.183Z,13.90
2018-11-07T17:02:12.842Z,13.80
2018-11-07T17:04:41.420Z,13.80
2018-11-07T17:07:10.028Z,13.80
2018-11-07T17:09:38.514Z,13.70
2018-11-07T17:12:07.068Z,13.60
2018-11-07T17:14:35.580Z,13.60
2018-11-07T17:17:04.102Z,13.50
2018-11-07T17:19:32.590Z,13.50
2018-11-07T17:22:01.163Z,13.40
2018-11-07T17:24:29.711Z,13.40
2018-11-07T17:26:58.102Z,13.30
2018-11-07T17:29:26.868Z,13.30
2018-11-07T17:31:55.425Z,13.30
2018-11-07T17:34:24.163Z,13.20
2018-11-07T17:36:52.615Z,13.20
2018-11-07T17:39:21.360Z,13.20
2018-11-07T17:41:49.868Z,13.20
2018-11-07T17:44:18.524Z,13.10
2018-11-07T17:46:47.056Z,13.20
2018-11-07T17:49:15.632Z,13.10
2018-11-07T17:51:44.227Z,13.20
2018-11-07T17:54:13.001Z,13.20
2018-11-07T17:56:41.681Z,13.20
2018-11-07T17:59:10.105Z,13.20
2018-11-07T18:01:38.835Z,13.20
2018-11-07T18:04:07.420Z,13.30
2018-11-07T18:06:36.070Z,13.30
2018-11-07T18:09:06.239Z,13.30
2018-11-07T18:11:35.009Z,13.30
2018-11-07T18:14:03.617Z,13.30
2018-11-07T18:16:32.243Z,13.30
2018-11-07T18:19:00.844Z,13.30
2018-11-07T18:21:29.309Z,13.30
2018-11-07T18:23:58.157Z,13.30
2018-11-07T18:26:26.622Z,13.30
2018-11-07T18:28:55.259Z,13.30
2018-11-07T18:31:23.718Z,13.30
2018-11-07T18:33:52.220Z,13.30
2018-11-07T18:36:20.770Z,13.30
2018-11-07T18:38:49.398Z,13.30
2018-11-07T18:41:17.883Z,13.30
2018-11-07T18:43:46.447Z,13.30
2018-11-07T18:46:15.046Z,13.30
2018-11-07T18:48:43.603Z,13.30
2018-11-07T18:51:12.187Z,13.30
2018-11-07T18:53:40.839Z,13.30
2018-11-07T18:56:09.253Z,13.30
2018-11-07T18:58:37.818Z,13.30
2018-11-07T19:01:07.059Z,13.30
2018-11-07T19:03:35.617Z,13.30
2018-11-07T19:06:04.433Z,13.20
2018-11-07T19:08:33.100Z,13.20
2018-11-07T19:11:01.655Z,13.20
2018-11-07T19:13:30.175Z,13.20
2018-11-07T19:15:58.748Z,13.20
2018-11-07T19:18:27.426Z,13.20
2018-11-07T19:20:56.057Z,13.20
2018-11-07T19:23:24.648Z,13.20
2018-11-07T19:25:53.222Z,13.20
2018-11-07T19:28:22.009Z,13.30
2018-11-07T19:30:50.593Z,13.30
2018-11-07T19:33:19.260Z,13.30
2018-11-07T19:35:47.761Z,13.30
2018-11-07T19:38:16.252Z,13.30
2018-11-07T19:40:44.759Z,13.30
2018-11-07T19:43:13.332Z,13.30
2018-11-07T19:45:42.088Z,13.30
2018-11-07T19:48:10.774Z,13.30
2018-11-07T19:50:39.252Z,13.30
2018-11-07T19:53:07.839Z,13.30
2018-11-07T19:55:36.343Z,13.30
2018-11-07T19:58:05.406Z,13.30
2018-11-07T20:00:34.061Z,13.30
2018-11-07T20:03:02.534Z,13.30
2018-11-07T20:05:31.236Z,13.20
2018-11-07T20:07:59.806Z,13.20
2018-11-07T20:10:28.437Z,13.20
2018-11-07T20:12:56.968Z,13.10
2018-11-07T20:15:25.539Z,13.10
2018-11-07T20:17:54.039Z,13.10
2018-11-07T20:20:22.657Z,13.00
2018-11-07T20:22:51.540Z,13.00
2018-11-07T20:25:19.888Z,13.00
2018-11-07T20:27:48.396Z,13.00
2018-11-07T20:30:18.383Z,13.00
2018-11-07T20:32:46.929Z,13.00
2018-11-07T20:35:16.817Z,13.00
2018-11-07T20:37:45.447Z,12.90
2018-11-07T20:40:15.391Z,12.90
2018-11-07T20:42:44.305Z,12.90
2018-11-07T20:45:13.722Z,12.90
2018-11-07T20:47:42.288Z,12.90
2018-11-07T20:50:13.000Z,12.90
2018-11-07T20:52:41.934Z,12.90
2018-11-07T20:55:11.270Z,12.90
2018-11-07T20:57:39.800Z,12.90
2018-11-07T21:00:17.351Z,12.90
2018-11-07T21:02:46.276Z,12.90
2018-11-07T21:05:14.891Z,13.00
2018-11-07T21:07:43.715Z,13.00
2018-11-07T21:10:14.455Z,13.00
2018-11-07T21:12:43.535Z,13.00
2018-11-07T21:15:13.428Z,13.00
2018-11-07T21:17:42.870Z,13.10
2018-11-07T21:20:11.384Z,13.10
2018-11-07T21:22:40.654Z,13.10
2018-11-07T21:25:09.475Z,13.10
2018-11-07T21:27:38.183Z,13.20
2018-11-07T21:30:10.580Z,13.20
2018-11-07T21:32:39.463Z,13.20
2018-11-07T21:35:08.372Z,13.20
2018-11-07T21:37:37.163Z,13.20
2018-11-07T21:40:08.731Z,13.20
2018-11-07T21:42:37.515Z,13.20
2018-11-07T21:45:08.253Z,13.20
2018-11-07T21:47:36.777Z,13.20
2018-11-07T21:50:06.432Z,13.20
2018-11-07T21:52:34.923Z,13.20
2018-11-07T21:55:03.719Z,13.20
2018-11-07T21:57:32.380Z,13.20
2018-11-07T22:00:00.898Z,13.20
2018-11-07T22:02:29.527Z,13.20
2018-11-07T22:04:58.157Z,13.20
2018-11-07T22:07:26.731Z,13.20
2018-11-07T22:09:55.350Z,13.20
2018-11-07T22:12:23.851Z,13.20
2018-11-07T22:14:52.507Z,13.20
2018-11-07T22:17:21.039Z,13.20
2018-11-07T22:19:49.590Z,13.20
2018-11-07T22:22:18.086Z,13.20
2018-11-07T22:24:46.543Z,13.20
2018-11-07T22:27:15.027Z,13.20
2018-11-07T22:29:43.641Z,13.20
2018-11-07T22:32:12.140Z,13.20
2018-11-07T22:34:40.732Z,13.20
2018-11-07T22:37:09.255Z,13.20
2018-11-07T22:39:37.839Z,13.20
2018-11-07T22:42:06.477Z,13.20
2018-11-07T22:44:35.012Z,13.20
2018-11-07T22:47:03.645Z,13.20
2018-11-07T22:49:32.229Z,13.20
2018-11-07T22:52:00.811Z,13.20
2018-11-07T22:54:29.290Z,13.20
2018-11-07T22:56:57.874Z,13.20
2018-11-07T22:59:26.368Z,13.20
2018-11-07T23:01:54.896Z,13.20
2018-11-07T23:04:23.456Z,13.20
2018-11-07T23:06:51.984Z,13.10
2018-11-07T23:09:20.478Z,13.10
2018-11-07T23:11:49.088Z,13.10
2018-11-07T23:14:17.953Z,13.10
2018-11-07T23:16:46.433Z,13.10
2018-11-07T23:19:14.947Z,13.10
2018-11-07T23:21:43.431Z,13.10
2018-11-07T23:24:11.955Z,13.10
2018-11-07T23:26:40.619Z,13.10
2018-11-07T23:29:09.245Z,13.10
2018-11-07T23:31:37.827Z,13.10
2018-11-07T23:34:06.411Z,13.00
2018-11-07T23:36:34.890Z,13.00
2018-11-07T23:39:03.695Z,13.00
2018-11-07T23:41:32.152Z,13.00
2018-11-07T23:44:00.741Z,13.10
2018-11-07T23:46:29.324Z,13.00
2018-11-07T23:48:57.960Z,13.00
2018-11-07T23:51:26.700Z,13.00
2018-11-07T23:53:55.116Z,13.00
2018-11-07T23:56:23.619Z,13.00
2018-11-07T23:58:52.192Z,13.00
